AA4247 / N268NN 7700 Squawk Report (20th of January, 2022)

Aircraft E75L Reg No. N268NN Age 3 years old
Model Emb-175 Jet engines 2 First flight 11-12-18
Registered 19-12-18 Rollout N/A Delivered 21-12-18
Construction No. 17000772 Line No. N/A Series 200LR
ADSHEX A29DEE Airline name Envoy Air Owner Envoy Air
Airfield based Dallas-Fort Worth~TX~N First tracked N/A

Flight history for N268NN

Route Flight No Date Playback
???? N/A 2022-05-24 21:12:00
Louis Armstrong New Orleans Intl (MSY) - Ronald Reagan Washington Natl (DCA) AA3583 2022-05-24 16:02:00
Ronald Reagan Washington Natl (DCA) - Louis Armstrong New Orleans Intl (MSY) AA3553 2022-05-24 03:08:00
Augusta Rgnl At Bush Fld (AGS) - Ronald Reagan Washington Natl (DCA) AA3678 2022-05-24 00:36:00
Ronald Reagan Washington Natl (DCA) - Albany Intl (ALB) - Ronald Reagan Washington Natl (DCA) AA3867 2022-05-23 19:36:00
NW Arkansas Regional (XNA) - Ronald Reagan Washington Natl (DCA) AA3824 2022-05-23 13:14:00
Hartsfield Jackson Atlanta Intl (ATL) - NW Arkansas Regional (XNA) N/A 2022-05-22 22:28:00
Miami Intl (MIA) - Hartsfield Jackson Atlanta Intl (ATL) AA3550 2022-05-22 19:57:00
Miami Intl (MIA) - Charleston Afb Intl (CHS) - Miami Intl (MIA) AA3930 2022-05-22 16:33:00
Raleigh Durham Intl (RDU) - Miami Intl (MIA) AA3899 2022-05-22 01:06:00
Austin Bergstrom Intl (AUS) - Raleigh Durham Intl (RDU) AA3961 2022-05-21 18:31:00
Lambert St Louis Intl (STL) - Austin Bergstrom Intl (AUS) AA4246 2022-05-21 01:45:00
Chicago Ohare Intl (ORD) - Lambert St Louis Intl (STL) AA4202 2022-05-20 23:26:00
Chicago Ohare Intl (ORD) - Logan International Airport (BOS) - Chicago Ohare Intl (ORD) AA4163 2022-05-20 20:32:00
Gerald R Ford Intl (GRR) - Chicago Ohare Intl (ORD) AA3555 2022-05-20 12:30:00
Chicago Ohare Intl (ORD) - Gerald R Ford Intl (GRR) AA3595 2022-05-20 11:38:00
Logan International Airport (BOS) - Chicago Ohare Intl (ORD) AA4216 2022-05-20 02:50:00
Cincinnati Northern Kentucky Intl (CVG) - Logan International Airport (BOS) AA4113 2022-05-19 22:39:00
Austin Bergstrom Intl (AUS) - Cincinnati Northern Kentucky Intl (CVG) AA3979 2022-05-19 19:49:00
Dallas Fort Worth (DFW) - Austin Bergstrom Intl (AUS) AA3883 2022-05-19 16:24:00
Time Lat Lon Altitude Heading Speed Vertical Rate
2022-01-20 02:22:14 GMT 30.180561 -97.678513 425 359 107 -576
2022-01-20 02:22:09 GMT 30.178232 -97.678452 475 359 108 -576
2022-01-20 02:22:05 GMT 30.176102 -97.678421 500 359 110 -576
2022-01-20 02:21:59 GMT 30.172806 -97.678314 575 359 108 -512
2022-01-20 02:21:56 GMT 30.171158 -97.678314 600 359 108 -576
2022-01-20 02:21:51 GMT 30.168270 -97.678238 650 359 108 -512
2022-01-20 02:21:47 GMT 30.166269 -97.678177 675 359 108 -512
2022-01-20 02:21:43 GMT 30.164337 -97.678154 725 359 108 -512
2022-01-20 02:21:39 GMT 30.162453 -97.678070 750 359 107 -576
2022-01-20 02:21:35 GMT 30.160950 -97.678040 775 359 107 -576
2022-01-20 02:21:29 GMT 30.158020 -97.677933 825 359 105 -576
2022-01-20 02:21:26 GMT 30.155823 -97.677933 875 359 104 -576
2022-01-20 02:21:20 GMT 30.153048 -97.677849 925 359 105 -384
2022-01-20 02:21:15 GMT 30.150970 -97.677773 950 359 105 -448
2022-01-20 02:21:11 GMT 30.149048 -97.677719 1,000 358 105 -448
2022-01-20 02:21:08 GMT 30.147079 -97.677612 1,025 358 104 -576
2022-01-20 02:21:05 GMT 30.146118 -97.677559 1,025 358 104 -576
2022-01-20 02:20:58 GMT 30.142946 -97.677467 1,100 359 104 -576
2022-01-20 02:20:55 GMT 30.140804 -97.677353 1,150 359 103 -704
2022-01-20 02:20:51 GMT 30.137192 -97.677292 1,200 359 101 -704
2022-01-20 02:20:47 GMT 30.137192 -97.677292 1,250 0 101 -640
2022-01-20 02:20:44 GMT 30.135963 -97.677299 1,275 0 101 -640
2022-01-20 02:20:40 GMT 30.134241 -97.677246 1,300 359 101 -704
2022-01-20 02:20:36 GMT 30.131882 -97.677177 1,350 0 103 -576
2022-01-20 02:20:33 GMT 30.131195 -97.677177 1,375 0 103 -512
2022-01-20 02:20:28 GMT 30.128328 -97.677193 1,400 359 103 -448
2022-01-20 02:20:24 GMT 30.126047 -97.677078 1,450 359 101 -640
2022-01-20 02:20:20 GMT 30.124557 -97.677078 1,500 0 101 -512
2022-01-20 02:20:16 GMT 30.122589 -97.677017 1,525 0 99 -576
2022-01-20 02:20:13 GMT 30.121307 -97.677017 1,550 359 99 -576
2022-01-20 02:20:09 GMT 30.119577 -97.676971 1,575 359 99 -576
2022-01-20 02:20:06 GMT 30.118561 -97.676964 1,600 359 99 -576
2022-01-20 02:20:03 GMT 30.116411 -97.676918 1,650 359 100 -512
2022-01-20 02:19:59 GMT 30.114922 -97.676865 1,675 359 100 -576
2022-01-20 02:19:55 GMT 30.111803 -97.676804 1,700 359 100 -512
2022-01-20 02:19:52 GMT 30.111803 -97.676804 1,725 359 100 -512
2022-01-20 02:19:49 GMT 30.110174 -97.676750 1,750 358 99 -576
2022-01-20 02:19:44 GMT 30.108080 -97.676697 1,800 359 99 -640
2022-01-20 02:19:41 GMT 30.106636 -97.676643 1,975 359 102 -576
2022-01-20 02:19:37 GMT 30.104633 -97.676643 1,875 359 100 -512
2022-01-20 02:19:34 GMT 30.103470 -97.676590 1,900 359 100 -448
2022-01-20 02:19:30 GMT 30.101608 -97.676590 1,925 359 101 -512
2022-01-20 02:19:27 GMT 30.100491 -97.676529 1,950 359 102 -576
2022-01-20 02:19:24 GMT 30.098396 -97.676476 2,000 359 103 -576
2022-01-20 02:19:21 GMT 30.097418 -97.676476 2,150 357 108 -448
2022-01-20 02:19:18 GMT 30.095627 -97.676376 2,050 359 102 -512
2022-01-20 02:19:13 GMT 30.093323 -97.676369 2,075 0 102 -512
2022-01-20 02:19:10 GMT 30.092299 -97.676315 2,125 0 102 -512
2022-01-20 02:19:07 GMT 30.090729 -97.676323 2,125 359 102 -448
2022-01-20 02:19:04 GMT 30.089584 -97.676270 2,150 359 102 -448
2022-01-20 02:19:01 GMT 30.087341 -97.676208 2,200 358 103 -640
2022-01-20 02:18:54 GMT 30.084503 -97.676102 2,250 359 103 -576
2022-01-20 02:18:50 GMT 30.082615 -97.676041 2,300 358 104 -512
2022-01-20 02:18:47 GMT 30.080893 -97.675980 2,325 358 106 -640
2022-01-20 02:18:43 GMT 30.079496 -97.675873 2,350 357 107 -704
2022-01-20 02:18:40 GMT 30.075678 -97.675652 2,400 357 110 -128
2022-01-20 02:18:36 GMT 30.075678 -97.675652 2,400 357 111 -64
2022-01-20 02:18:32 GMT 30.073334 -97.675514 2,400 359 116 -64
2022-01-20 02:18:29 GMT 30.072006 -97.675461 2,400 0 117 64
2022-01-20 02:18:26 GMT 30.070139 -97.675430 2,400 1 118 128
2022-01-20 02:18:23 GMT 30.068834 -97.675491 2,375 3 119 64
2022-01-20 02:18:19 GMT 30.065948 -97.675873 2,375 8 121 128
2022-01-20 02:18:13 GMT 30.063126 -97.676590 2,375 17 127 -64
2022-01-20 02:18:08 GMT 30.060270 -97.677742 2,400 21 133 -64
2022-01-20 02:18:05 GMT 30.058594 -97.678528 2,400 23 136 128
2022-01-20 02:18:01 GMT 30.055847 -97.680199 2,400 37 144 -128
2022-01-20 02:17:58 GMT 30.054565 -97.681381 2,400 40 146 -64
2022-01-20 02:17:55 GMT 30.052868 -97.683067 2,400 42 147 -128
2022-01-20 02:17:52 GMT 30.051611 -97.684387 2,400 42 146 -128
2022-01-20 02:17:49 GMT 30.050402 -97.685654 2,400 42 145 -192
2022-01-20 02:17:46 GMT 30.048819 -97.687355 2,400 42 142 256
2022-01-20 02:17:42 GMT 30.046631 -97.689659 2,400 42 142 256
2022-01-20 02:17:39 GMT 30.045094 -97.691307 2,400 42 142 64
2022-01-20 02:17:36 GMT 30.043671 -97.692856 2,400 42 142 64
2022-01-20 02:17:32 GMT 30.041473 -97.695168 2,400 43 143 0
2022-01-20 02:17:27 GMT 30.039230 -97.697701 2,400 44 143 -256
2022-01-20 02:17:24 GMT 30.037674 -97.699478 2,400 46 144 -256
2022-01-20 02:17:19 GMT 30.035248 -97.702705 2,425 52 146 64
2022-01-20 02:17:16 GMT 30.034470 -97.704002 2,400 59 148 128
2022-01-20 02:17:13 GMT 30.033600 -97.706100 2,400 70 153 192
2022-01-20 02:17:10 GMT 30.033142 -97.707985 2,400 78 158 192
2022-01-20 02:17:07 GMT 30.032850 -97.711906 2,400 93 165 64
2022-01-20 02:17:04 GMT 30.032990 -97.714050 2,400 99 168 0
2022-01-20 02:17:01 GMT 30.033503 -97.717239 2,400 101 169 64
2022-01-20 02:16:58 GMT 30.033829 -97.718994 2,400 102 170 64
2022-01-20 02:16:54 GMT 30.034515 -97.722687 2,400 102 170 0
2022-01-20 02:16:51 GMT 30.035038 -97.725693 2,400 100 173 0
2022-01-20 02:16:48 GMT 30.035522 -97.728455 2,400 100 175 -128
2022-01-20 02:16:43 GMT 30.036255 -97.732918 2,400 100 180 128
2022-01-20 02:16:40 GMT 30.036715 -97.736130 2,400 99 182 -64
2022-01-20 02:16:35 GMT 30.037399 -97.740623 2,400 100 184 64
2022-01-20 02:16:31 GMT 30.037903 -97.743690 2,400 100 184 0
2022-01-20 02:16:27 GMT 30.038761 -97.748932 2,400 101 184 -64
2022-01-20 02:16:22 GMT 30.039555 -97.753159 2,400 104 184 0
2022-01-20 02:16:18 GMT 30.040192 -97.756027 2,400 107 186 -128
2022-01-20 02:16:15 GMT 30.041428 -97.759743 2,400 116 189 -64
2022-01-20 02:16:12 GMT 30.042767 -97.762390 2,400 123 194 64
2022-01-20 02:16:09 GMT 30.044628 -97.765030 2,400 134 200 -64
2022-01-20 02:16:04 GMT 30.047607 -97.767982 2,400 145 204 -64
2022-01-20 02:16:01 GMT 30.050583 -97.770027 2,400 154 209 64
2022-01-20 02:15:58 GMT 30.052734 -97.771103 2,400 160 211 64
2022-01-20 02:15:53 GMT 30.057152 -97.772385 2,400 177 217 -128
2022-01-20 02:15:50 GMT 30.060562 -97.772720 2,400 183 218 -64
2022-01-20 02:15:47 GMT 30.063202 -97.772659 2,400 185 218 128
2022-01-20 02:15:44 GMT 30.067795 -97.772339 2,400 184 219 128
2022-01-20 02:15:40 GMT 30.072840 -97.771950 2,400 184 218 -64
2022-01-20 02:15:36 GMT 30.074295 -97.771805 2,400 184 218 -64
2022-01-20 02:15:33 GMT 30.078098 -97.771507 2,400 184 217 -128
2022-01-20 02:15:30 GMT 30.081161 -97.771317 2,400 184 215 -64
2022-01-20 02:15:25 GMT 30.086334 -97.770943 2,400 184 214 0
2022-01-20 02:15:22 GMT 30.088900 -97.770798 2,400 184 213 -64
2022-01-20 02:15:19 GMT 30.091827 -97.770622 2,400 184 212 64
2022-01-20 02:15:16 GMT 30.094254 -97.770454 2,400 184 211 128
2022-01-20 02:15:13 GMT 30.098465 -97.770187 2,400 184 210 64
2022-01-20 02:15:06 GMT 30.106077 -97.769699 2,400 183 210 -64
2022-01-20 02:15:03 GMT 30.107117 -97.769653 2,400 183 211 -64
2022-01-20 02:14:59 GMT 30.112106 -97.769325 2,400 183 211 0
2022-01-20 02:14:55 GMT 30.114487 -97.769165 2,400 183 211 64
2022-01-20 02:14:51 GMT 30.118835 -97.768898 2,400 183 211 128
2022-01-20 02:14:47 GMT 30.123962 -97.768623 2,400 183 210 64
2022-01-20 02:14:43 GMT 30.127853 -97.768356 2,400 184 210 -192
2022-01-20 02:14:40 GMT 30.130600 -97.768196 2,400 184 210 -128
2022-01-20 02:14:37 GMT 30.132156 -97.768089 2,400 184 210 -128
2022-01-20 02:14:34 GMT 30.135450 -97.767883 2,400 184 211 0
2022-01-20 02:14:31 GMT 30.138016 -97.767708 2,400 183 211 -64
2022-01-20 02:14:27 GMT 30.143097 -97.767387 2,400 184 211 64
2022-01-20 02:14:24 GMT 30.145020 -97.767281 2,400 184 210 192
2022-01-20 02:14:20 GMT 30.149883 -97.766953 2,400 184 209 -192
2022-01-20 02:14:17 GMT 30.152210 -97.766785 2,400 184 209 192
2022-01-20 02:14:14 GMT 30.155329 -97.766563 2,400 184 209 192
2022-01-20 02:14:10 GMT 30.159348 -97.766312 2,400 184 209 64
2022-01-20 02:14:07 GMT 30.162638 -97.766129 2,400 184 209 64
2022-01-20 02:14:03 GMT 30.165430 -97.765961 2,400 184 208 128
2022-01-20 02:14:00 GMT 30.169294 -97.765739 2,400 184 207 -64
2022-01-20 02:13:57 GMT 30.172165 -97.765556 2,400 184 208 64
2022-01-20 02:13:54 GMT 30.175232 -97.765396 2,400 183 209 -64
2022-01-20 02:13:50 GMT 30.179901 -97.765129 2,400 183 210 0
2022-01-20 02:13:46 GMT 30.182468 -97.764969 2,400 183 212 -128
2022-01-20 02:13:43 GMT 30.185394 -97.764854 2,400 183 213 64
2022-01-20 02:13:39 GMT 30.189173 -97.764641 2,400 183 217 64
2022-01-20 02:13:35 GMT 30.192757 -97.764420 2,400 183 219 -128
2022-01-20 02:13:31 GMT 30.198483 -97.764091 2,400 184 224 128
2022-01-20 02:13:26 GMT 30.203156 -97.763832 2,400 184 225 128
2022-01-20 02:13:22 GMT 30.206635 -97.763618 2,400 184 225 -64
2022-01-20 02:13:18 GMT 30.211624 -97.763298 2,400 184 224 -64
2022-01-20 02:13:15 GMT 30.214096 -97.763130 2,400 184 223 -64
2022-01-20 02:13:12 GMT 30.218781 -97.762772 2,400 184 223 0
2022-01-20 02:13:09 GMT 30.220827 -97.762665 2,400 184 223 128
2022-01-20 02:13:06 GMT 30.223343 -97.762497 2,400 184 222 0
2022-01-20 02:13:03 GMT 30.226740 -97.762283 2,400 184 222 0
2022-01-20 02:13:00 GMT 30.229208 -97.762115 2,400 184 222 0
2022-01-20 02:12:56 GMT 30.234283 -97.761787 2,400 184 219 -128
2022-01-20 02:12:53 GMT 30.237122 -97.761627 2,400 184 219 -64
2022-01-20 02:12:50 GMT 30.240372 -97.761353 2,400 185 219 -64
2022-01-20 02:12:45 GMT 30.244663 -97.760963 2,400 188 218 0
2022-01-20 02:12:41 GMT 30.248886 -97.760223 2,400 196 220 64
2022-01-20 02:12:38 GMT 30.251368 -97.759476 2,400 202 222 -64
2022-01-20 02:12:35 GMT 30.254700 -97.757912 2,400 211 223 -256
2022-01-20 02:12:32 GMT 30.257744 -97.755852 2,400 218 223 -192
2022-01-20 02:12:29 GMT 30.260742 -97.753006 2,425 226 220 -128
2022-01-20 02:12:25 GMT 30.262939 -97.750206 2,425 234 217 64
2022-01-20 02:12:21 GMT 30.265137 -97.746384 2,400 243 212 384
2022-01-20 02:12:17 GMT 30.266729 -97.742012 2,375 254 208 320
2022-01-20 02:12:13 GMT 30.267471 -97.738358 2,375 260 205 -128
2022-01-20 02:12:09 GMT 30.268080 -97.733055 2,375 264 202 64
2022-01-20 02:12:06 GMT 30.268312 -97.730911 2,375 264 202 128
2022-01-20 02:12:03 GMT 30.268661 -97.727211 2,375 264 204 128
2022-01-20 02:11:58 GMT 30.269243 -97.721298 2,375 264 206 -320
2022-01-20 02:11:55 GMT 30.269531 -97.718002 2,400 264 208 -128
2022-01-20 02:11:52 GMT 30.269714 -97.715797 2,400 265 209 -64
2022-01-20 02:11:48 GMT 30.270081 -97.711754 2,400 266 211 -64
2022-01-20 02:11:45 GMT 30.270309 -97.707718 2,400 270 210 0
2022-01-20 02:11:41 GMT 30.270401 -97.704163 2,400 270 210 64
2022-01-20 02:11:38 GMT 30.270267 -97.699875 2,400 281 207 -192
2022-01-20 02:11:35 GMT 30.269806 -97.696571 2,400 286 205 -128
2022-01-20 02:11:32 GMT 30.268824 -97.693008 2,400 292 203 0
2022-01-20 02:11:29 GMT 30.267334 -97.689552 2,400 307 198 -320
2022-01-20 02:11:25 GMT 30.265182 -97.686394 2,425 314 195 -192
2022-01-20 02:11:21 GMT 30.263077 -97.684128 2,425 322 194 64
2022-01-20 02:11:17 GMT 30.260101 -97.681870 2,400 330 192 64
2022-01-20 02:11:14 GMT 30.257650 -97.680649 2,400 341 190 64
2022-01-20 02:11:10 GMT 30.254745 -97.679764 2,400 351 189 -256
2022-01-20 02:11:07 GMT 30.252319 -97.679443 2,425 357 187 -256
2022-01-20 02:11:04 GMT 30.249573 -97.679390 2,425 0 184 192
2022-01-20 02:11:01 GMT 30.246014 -97.679390 2,400 0 179 192
2022-01-20 02:10:58 GMT 30.243530 -97.679443 2,400 0 177 128
2022-01-20 02:10:54 GMT 30.239914 -97.679497 2,375 0 173 -64
2022-01-20 02:10:51 GMT 30.238037 -97.679497 2,400 0 169 -192
2022-01-20 02:10:48 GMT 30.235678 -97.679497 2,400 0 167 -128
2022-01-20 02:10:45 GMT 30.234097 -97.679550 2,400 0 164 0
2022-01-20 02:10:42 GMT 30.232046 -97.679550 2,400 0 162 0
2022-01-20 02:10:39 GMT 30.229752 -97.679604 2,400 0 159 192
2022-01-20 02:10:36 GMT 30.226593 -97.679604 2,350 0 150 1024
2022-01-20 02:10:33 GMT 30.224579 -97.679657 2,325 0 146 1280
2022-01-20 02:10:29 GMT 30.222198 -97.679657 2,225 0 141 1152
2022-01-20 02:10:24 GMT 30.219086 -97.679604 2,200 359 135 -64
2022-01-20 02:10:20 GMT 30.216064 -97.679497 2,225 359 135 0
2022-01-20 02:10:16 GMT 30.214142 -97.679443 2,200 0 140 512
2022-01-20 02:10:13 GMT 30.212265 -97.679443 2,200 0 141 896
2022-01-20 02:10:09 GMT 30.209330 -97.679390 2,075 0 136 2112
2022-01-20 02:10:06 GMT 30.207138 -97.679337 1,950 0 134 2432
2022-01-20 02:10:02 GMT 30.204582 -97.679276 1,800 359 132 1920
2022-01-20 02:09:59 GMT 30.202927 -97.679230 1,700 359 130 1920
2022-01-20 02:09:56 GMT 30.201279 -97.679176 1,625 359 127 2048
2022-01-20 02:09:53 GMT 30.199507 -97.679115 1,500 358 125 2368
2022-01-20 02:09:50 GMT 30.198343 -97.679062 1,400 358 123 2816
2022-01-20 02:09:45 GMT 30.195236 -97.678963 1,150 358 124 2816
2022-01-20 02:09:41 GMT 30.192490 -97.678795 900 358 124 3008
2022-01-20 02:09:38 GMT 30.190659 -97.678741 750 359 125 3008
2022-01-20 02:09:35 GMT 30.189240 -97.678688 625 359 126 2560
2022-01-20 02:09:29 GMT 30.186054 -97.678619 475 359 124 1536
2022-01-20 02:09:19 GMT 30.180655 -97.678513 425 359 111 -320
2022-01-20 02:09:09 GMT 30.175415 -97.678368 475 359 111 -640
2022-01-20 02:09:04 GMT 30.172600 -97.678291 550 359 109 -896
2022-01-20 02:08:58 GMT 30.170059 -97.678207 625 359 108 -896
2022-01-20 02:08:54 GMT 30.167267 -97.678154 700 359 106 -576
2022-01-20 02:08:49 GMT 30.165012 -97.678070 725 358 105 -576
2022-01-20 02:08:43 GMT 30.162312 -97.677963 775 359 104 -640
2022-01-20 02:08:39 GMT 30.158447 -97.677849 850 359 104 -576
2022-01-20 02:08:36 GMT 30.158447 -97.677849 875 359 104 -704
2022-01-20 02:08:32 GMT 30.157099 -97.677849 900 359 105 -576
2022-01-20 02:08:27 GMT 30.154816 -97.677773 950 359 105 -512
2022-01-20 02:08:23 GMT 30.152069 -97.677666 975 358 104 -320
2022-01-20 02:08:18 GMT 30.149696 -97.677521 1,000 358 103 -448
2022-01-20 02:08:12 GMT 30.147171 -97.677399 1,050 359 102 -448
2022-01-20 02:08:08 GMT 30.145065 -97.677345 1,075 359 101 -448
2022-01-20 02:08:04 GMT 30.143600 -97.677292 1,100 359 101 -512
2022-01-20 02:08:01 GMT 30.142387 -97.677246 1,125 359 101 -576
2022-01-20 02:07:57 GMT 30.139847 -97.677238 1,175 0 102 -512
2022-01-20 02:07:54 GMT 30.139130 -97.677193 1,200 0 103 -320
2022-01-20 02:07:51 GMT 30.137512 -97.677177 1,200 0 105 -192
2022-01-20 02:07:47 GMT 30.135361 -97.677177 1,200 0 107 -128
2022-01-20 02:07:44 GMT 30.133682 -97.677139 1,200 0 107 -192
2022-01-20 02:07:39 GMT 30.131029 -97.677078 1,250 0 118 -384
2022-01-20 02:07:36 GMT 30.129684 -97.677071 1,250 359 116 -448
2022-01-20 02:07:31 GMT 30.126801 -97.677017 1,300 0 122 -512
2022-01-20 02:07:26 GMT 30.124512 -97.677017 1,325 0 126 -64
2022-01-20 02:07:23 GMT 30.122452 -97.676964 1,325 0 127 0
2022-01-20 02:07:18 GMT 30.119251 -97.676971 1,325 0 132 -128
2022-01-20 02:07:13 GMT 30.115993 -97.676971 1,350 0 138 -512
2022-01-20 02:07:10 GMT 30.114504 -97.676971 1,350 0 141 -448
2022-01-20 02:07:05 GMT 30.110870 -97.677017 1,375 0 144 -64
2022-01-20 02:07:00 GMT 30.107391 -97.677017 1,375 0 144 -64
2022-01-20 02:06:55 GMT 30.104868 -97.677078 1,375 351 148 -320
2022-01-20 02:06:52 GMT 30.102446 -97.677078 1,400 359 145 -192
2022-01-20 02:06:49 GMT 30.100433 -97.676910 1,400 355 146 -256
2022-01-20 02:06:45 GMT 30.097279 -97.676422 1,425 350 149 -320
2022-01-20 02:06:42 GMT 30.095261 -97.675995 1,500 1 154 -576
2022-01-20 02:06:39 GMT 30.093567 -97.675728 1,450 356 151 -320
2022-01-20 02:06:33 GMT 30.089676 -97.675621 1,550 1 154 -576
2022-01-20 02:06:29 GMT 30.086197 -97.675728 1,525 1 154 -640
2022-01-20 02:06:25 GMT 30.083908 -97.675781 1,575 1 155 -576
2022-01-20 02:06:22 GMT 30.080893 -97.675873 1,600 0 156 -512
2022-01-20 02:06:18 GMT 30.078844 -97.675926 1,625 0 156 -640
2022-01-20 02:06:14 GMT 30.075445 -97.675873 1,700 354 156 -896
2022-01-20 02:06:11 GMT 30.072792 -97.675491 1,725 348 157 -960
2022-01-20 02:06:07 GMT 30.070679 -97.674812 1,775 340 157 -832
2022-01-20 02:06:02 GMT 30.067347 -97.673180 1,825 336 157 -576
2022-01-20 02:05:58 GMT 30.063995 -97.671417 1,875 334 158 -448
2022-01-20 02:05:55 GMT 30.062668 -97.670609 1,900 332 160 -128
2022-01-20 02:05:50 GMT 30.059385 -97.668625 1,900 332 161 128
2022-01-20 02:05:47 GMT 30.057570 -97.667465 1,875 332 161 128
2022-01-20 02:05:43 GMT 30.054565 -97.665550 1,875 332 161 -64
2022-01-20 02:05:40 GMT 30.052309 -97.664116 1,900 331 162 -64
2022-01-20 02:05:36 GMT 30.050125 -97.662697 1,900 331 165 0
2022-01-20 02:05:33 GMT 30.048073 -97.661369 1,900 331 166 64
2022-01-20 02:05:30 GMT 30.046829 -97.660591 1,900 331 168 64
2022-01-20 02:05:26 GMT 30.043697 -97.658569 1,900 331 168 -64
2022-01-20 02:05:21 GMT 30.039927 -97.656097 1,900 331 168 64
2022-01-20 02:05:16 GMT 30.037079 -97.654182 1,875 330 169 -128
2022-01-20 02:05:10 GMT 30.032850 -97.651375 1,900 330 169 -128
2022-01-20 02:05:07 GMT 30.030149 -97.649506 1,900 329 172 -64
2022-01-20 02:05:02 GMT 30.027405 -97.647530 1,900 326 177 -128
2022-01-20 02:04:59 GMT 30.025496 -97.646042 1,900 319 185 -64
2022-01-20 02:04:54 GMT 30.022284 -97.643242 1,900 319 185 -64
2022-01-20 02:04:50 GMT 30.018978 -97.638962 1,900 305 197 -64
2022-01-20 02:04:47 GMT 30.018187 -97.637527 1,900 298 203 64
2022-01-20 02:04:44 GMT 30.016891 -97.634636 1,900 293 207 192
2022-01-20 02:04:38 GMT 30.015427 -97.628609 1,900 279 214 64
2022-01-20 02:04:35 GMT 30.015152 -97.623596 1,900 269 220 -256
2022-01-20 02:04:29 GMT 30.015533 -97.616272 1,950 266 217 -768
2022-01-20 02:04:26 GMT 30.015673 -97.614021 1,975 265 216 -960
2022-01-20 02:04:23 GMT 30.015951 -97.610283 2,050 265 214 -1280
2022-01-20 02:04:20 GMT 30.016342 -97.605499 2,125 265 213 -1280
2022-01-20 02:04:17 GMT 30.016571 -97.602753 2,175 265 214 -1216
2022-01-20 02:04:13 GMT 30.016800 -97.599579 2,250 265 214 -1152
2022-01-20 02:04:07 GMT 30.017303 -97.592682 2,325 266 218 -768
2022-01-20 02:04:04 GMT 30.017628 -97.587814 2,350 267 221 -576
2022-01-20 02:03:58 GMT 30.018047 -97.580673 2,425 267 225 -768
2022-01-20 02:03:53 GMT 30.018280 -97.575294 2,500 268 226 -1024
2022-01-20 02:03:49 GMT 30.018419 -97.570023 2,600 269 225 -1152
2022-01-20 02:03:46 GMT 30.018448 -97.566406 2,650 270 225 -1216
2022-01-20 02:03:43 GMT 30.018513 -97.562332 2,725 270 224 -1280
2022-01-20 02:03:38 GMT 30.018494 -97.557358 2,850 272 222 -1216
2022-01-20 02:03:35 GMT 30.018419 -97.553757 2,900 273 221 -1088
2022-01-20 02:03:32 GMT 30.018219 -97.549278 2,925 275 220 -704
2022-01-20 02:03:26 GMT 30.017534 -97.543106 2,950 282 220 -320
2022-01-20 02:03:23 GMT 30.016800 -97.539688 2,975 289 220 -64
2022-01-20 02:03:20 GMT 30.015701 -97.536568 2,975 298 217 -64
2022-01-20 02:03:17 GMT 30.014277 -97.533493 2,975 304 216 -128
2022-01-20 02:03:13 GMT 30.011017 -97.528877 2,975 324 211 -128
2022-01-20 02:03:10 GMT 30.009979 -97.527786 2,975 318 213 -64
2022-01-20 02:03:07 GMT 30.007141 -97.525368 2,975 333 211 128
2022-01-20 02:03:04 GMT 30.004761 -97.523857 2,975 335 210 192
2022-01-20 02:03:01 GMT 30.002033 -97.522614 2,975 343 209 256
2022-01-20 02:02:58 GMT 29.999176 -97.521812 2,950 355 208 -128
2022-01-20 02:02:55 GMT 29.996307 -97.521515 2,950 359 208 -128
2022-01-20 02:02:52 GMT 29.993280 -97.521568 2,950 4 205 0
2022-01-20 02:02:48 GMT 29.987602 -97.522118 2,950 5 206 -64
2022-01-20 02:02:45 GMT 29.986176 -97.522293 2,950 5 206 -64
2022-01-20 02:02:41 GMT 29.982376 -97.522781 2,975 7 206 -192
2022-01-20 02:02:38 GMT 29.980087 -97.523155 2,975 9 205 0
2022-01-20 02:02:35 GMT 29.977478 -97.523697 2,975 13 205 128
2022-01-20 02:02:32 GMT 29.975172 -97.524368 2,975 17 204 -256
2022-01-20 02:02:29 GMT 29.972122 -97.525848 3,000 25 204 -512
2022-01-20 02:02:26 GMT 29.968323 -97.528755 3,075 41 209 -1088
2022-01-20 02:02:23 GMT 29.966858 -97.530319 3,100 45 210 -1088
2022-01-20 02:02:19 GMT 29.965027 -97.532745 3,150 53 212 -1024
2022-01-20 02:02:14 GMT 29.962044 -97.538818 3,250 68 217 -896
2022-01-20 02:02:10 GMT 29.960880 -97.543266 3,325 78 220 -1088
2022-01-20 02:02:05 GMT 29.960369 -97.548874 3,425 92 224 -1216
2022-01-20 02:02:02 GMT 29.960449 -97.552078 3,450 94 224 -1152
2022-01-20 02:01:59 GMT 29.960815 -97.555794 3,525 97 225 -1088
2022-01-20 02:01:55 GMT 29.961502 -97.561607 3,625 97 225 -1152
2022-01-20 02:01:52 GMT 29.961905 -97.565186 3,675 97 225 -1152
2022-01-20 02:01:48 GMT 29.962280 -97.568176 3,725 97 224 -1152
2022-01-20 02:01:42 GMT 29.963116 -97.575623 3,850 97 224 -1088
2022-01-20 02:01:39 GMT 29.963654 -97.580620 3,900 97 224 -960
2022-01-20 02:01:35 GMT 29.964001 -97.583694 3,925 97 224 -768
2022-01-20 02:01:31 GMT 29.964605 -97.588974 3,975 97 227 -192
2022-01-20 02:01:28 GMT 29.965117 -97.593307 3,975 98 228 0
2022-01-20 02:01:24 GMT 29.965721 -97.598091 3,975 98 229 0
2022-01-20 02:01:21 GMT 29.966234 -97.601990 3,975 98 229 0
2022-01-20 02:01:17 GMT 29.967178 -97.609489 3,975 98 229 64
2022-01-20 02:01:14 GMT 29.967178 -97.609489 3,975 98 230 64
2022-01-20 02:01:11 GMT 29.967630 -97.613144 3,975 97 230 0
2022-01-20 02:01:08 GMT 29.968185 -97.617676 3,975 97 230 -64
2022-01-20 02:01:05 GMT 29.968561 -97.620834 3,975 97 230 0
2022-01-20 02:01:02 GMT 29.968842 -97.623360 3,975 97 230 -64
2022-01-20 02:00:59 GMT 29.969213 -97.626709 3,975 97 230 -64
2022-01-20 02:00:56 GMT 29.969818 -97.632095 3,975 97 230 64
2022-01-20 02:00:53 GMT 29.970108 -97.634315 3,975 97 229 0
2022-01-20 02:00:50 GMT 29.970612 -97.639160 3,975 97 229 64
2022-01-20 02:00:47 GMT 29.971024 -97.642555 3,975 97 229 64
2022-01-20 02:00:44 GMT 29.971401 -97.646210 3,975 97 229 -64
2022-01-20 02:00:40 GMT 29.971912 -97.650986 3,975 97 229 -64
2022-01-20 02:00:37 GMT 29.972380 -97.654945 3,975 97 229 0
2022-01-20 02:00:34 GMT 29.972845 -97.659340 3,975 97 229 0
2022-01-20 02:00:30 GMT 29.973267 -97.663452 3,975 97 228 -64
2022-01-20 02:00:26 GMT 29.973724 -97.667809 3,975 97 228 -64
2022-01-20 02:00:21 GMT 29.974411 -97.674110 3,975 97 228 0
2022-01-20 02:00:18 GMT 29.974777 -97.677505 3,975 97 227 0
2022-01-20 02:00:14 GMT 29.975451 -97.683510 3,975 97 227 64
2022-01-20 02:00:11 GMT 29.975777 -97.686363 3,975 97 226 -64
2022-01-20 02:00:08 GMT 29.976196 -97.690155 3,975 97 226 -64
2022-01-20 02:00:04 GMT 29.976562 -97.693336 3,975 97 226 64
2022-01-20 02:00:01 GMT 29.977266 -97.699326 3,975 97 226 64
2022-01-20 01:59:58 GMT 29.977432 -97.701042 3,975 97 226 -64
2022-01-20 01:59:55 GMT 29.977936 -97.705345 3,975 97 226 -128
2022-01-20 01:59:52 GMT 29.978338 -97.708939 3,975 97 227 0
2022-01-20 01:59:48 GMT 29.978714 -97.712563 3,975 97 227 128
2022-01-20 01:59:45 GMT 29.979309 -97.717842 3,975 97 227 128
2022-01-20 01:59:41 GMT 29.979689 -97.721466 3,975 97 226 64
2022-01-20 01:59:37 GMT 29.980316 -97.726997 3,975 97 225 0
2022-01-20 01:59:34 GMT 29.980682 -97.730225 3,975 97 224 -128
2022-01-20 01:59:30 GMT 29.981323 -97.736046 3,975 97 224 -128
2022-01-20 01:59:27 GMT 29.981689 -97.739098 3,975 97 224 -128
2022-01-20 01:59:21 GMT 29.982422 -97.746010 3,975 97 226 0
2022-01-20 01:59:16 GMT 29.983063 -97.751770 3,975 97 226 0
2022-01-20 01:59:13 GMT 29.983566 -97.756561 3,975 97 226 0
2022-01-20 01:59:09 GMT 29.984344 -97.763725 3,975 97 225 64
2022-01-20 01:59:06 GMT 29.984344 -97.763725 3,975 97 226 0
2022-01-20 01:59:03 GMT 29.984848 -97.768517 3,975 97 226 0
2022-01-20 01:59:00 GMT 29.985134 -97.771072 3,975 97 225 0
2022-01-20 01:58:56 GMT 29.986267 -97.780960 3,975 97 224 0
2022-01-20 01:58:52 GMT 29.986267 -97.780960 3,975 97 224 -64
2022-01-20 01:58:48 GMT 29.986816 -97.785645 3,975 98 222 64
2022-01-20 01:58:44 GMT 29.987274 -97.789413 3,975 98 222 128
2022-01-20 01:58:41 GMT 29.987696 -97.792931 3,975 98 221 -64
2022-01-20 01:58:38 GMT 29.988253 -97.797600 3,975 98 221 0
2022-01-20 01:58:35 GMT 29.988647 -97.800560 3,975 98 222 0
2022-01-20 01:58:32 GMT 29.989059 -97.803902 3,975 97 223 -64
2022-01-20 01:58:29 GMT 29.989517 -97.807617 3,975 98 222 64
2022-01-20 01:58:25 GMT 29.989975 -97.811333 3,975 97 223 64
2022-01-20 01:58:22 GMT 29.990627 -97.816391 3,975 97 223 0
2022-01-20 01:58:19 GMT 29.990982 -97.819359 3,975 97 223 -64
2022-01-20 01:58:15 GMT 29.991714 -97.825119 3,975 98 224 0
2022-01-20 01:58:11 GMT 29.992126 -97.828407 3,975 98 224 64
2022-01-20 01:58:07 GMT 29.992815 -97.833855 3,975 98 224 0
2022-01-20 01:58:02 GMT 29.993561 -97.839462 3,975 98 224 0
2022-01-20 01:57:59 GMT 29.994278 -97.844994 3,975 99 225 -64
2022-01-20 01:57:56 GMT 29.994507 -97.846443 3,975 99 225 -128
2022-01-20 01:57:52 GMT 29.995285 -97.851616 3,975 102 225 -64
2022-01-20 01:57:49 GMT 29.995934 -97.855171 3,975 104 225 128
2022-01-20 01:57:46 GMT 29.996750 -97.858620 3,975 107 226 192
2022-01-20 01:57:43 GMT 29.997620 -97.861366 3,975 113 227 0
2022-01-20 01:57:40 GMT 29.999378 -97.865387 3,975 128 229 -128
2022-01-20 01:57:35 GMT 30.001614 -97.869064 3,975 140 232 128
2022-01-20 01:57:32 GMT 30.004028 -97.871971 3,975 136 231 0
2022-01-20 01:57:29 GMT 30.006454 -97.874290 3,975 143 233 192
2022-01-20 01:57:26 GMT 30.010574 -97.877090 3,975 154 234 64
2022-01-20 01:57:23 GMT 30.013111 -97.878296 3,975 161 234 64
2022-01-20 01:57:20 GMT 30.019638 -97.879997 3,975 170 236 0
2022-01-20 01:57:17 GMT 30.019638 -97.879997 3,975 175 236 -64
2022-01-20 01:57:14 GMT 30.023493 -97.880165 3,975 183 238 -64
2022-01-20 01:57:09 GMT 30.027822 -97.879837 3,975 187 239 64
2022-01-20 01:57:06 GMT 30.030807 -97.879456 3,975 187 240 0
2022-01-20 01:57:02 GMT 30.035923 -97.878792 3,975 187 241 64
2022-01-20 01:56:59 GMT 30.038576 -97.878464 3,975 187 241 -64
2022-01-20 01:56:56 GMT 30.042343 -97.877953 3,975 187 241 -64
2022-01-20 01:56:53 GMT 30.045187 -97.877579 3,975 187 242 0
2022-01-20 01:56:49 GMT 30.051052 -97.876816 3,975 187 242 64
2022-01-20 01:56:44 GMT 30.055986 -97.876099 3,975 187 241 64
2022-01-20 01:56:41 GMT 30.060516 -97.875526 3,975 187 240 64
2022-01-20 01:56:37 GMT 30.063528 -97.875107 3,975 187 239 0
2022-01-20 01:56:33 GMT 30.068161 -97.874504 3,975 187 239 0
2022-01-20 01:56:29 GMT 30.071686 -97.874023 3,975 187 238 0
2022-01-20 01:56:26 GMT 30.076538 -97.873375 3,975 187 238 0
2022-01-20 01:56:22 GMT 30.080383 -97.872887 3,975 187 238 0
2022-01-20 01:56:18 GMT 30.085501 -97.872200 3,975 187 239 0
2022-01-20 01:56:15 GMT 30.088348 -97.871811 3,975 187 239 0
2022-01-20 01:56:12 GMT 30.091740 -97.871323 3,975 188 240 64
2022-01-20 01:56:09 GMT 30.094574 -97.870895 3,975 188 241 64
2022-01-20 01:56:05 GMT 30.099564 -97.870140 3,975 188 243 64
2022-01-20 01:56:02 GMT 30.102219 -97.869766 3,975 188 243 -64
2022-01-20 01:55:57 GMT 30.108490 -97.868797 3,975 188 244 0
2022-01-20 01:55:52 GMT 30.113665 -97.867966 3,975 188 243 64
2022-01-20 01:55:49 GMT 30.118332 -97.867233 3,975 188 243 64
2022-01-20 01:55:45 GMT 30.121252 -97.866814 3,975 188 242 0
2022-01-20 01:55:42 GMT 30.125210 -97.866211 3,975 188 242 64
2022-01-20 01:55:38 GMT 30.132935 -97.865028 3,975 188 241 -64
2022-01-20 01:55:35 GMT 30.132935 -97.865028 3,975 188 239 -64
2022-01-20 01:55:31 GMT 30.136803 -97.864456 3,975 188 239 -64
2022-01-20 01:55:26 GMT 30.143188 -97.863571 3,975 188 239 0
2022-01-20 01:55:21 GMT 30.148041 -97.862869 3,975 187 239 0
2022-01-20 01:55:18 GMT 30.151474 -97.862389 3,975 187 239 64
2022-01-20 01:55:15 GMT 30.154587 -97.861954 3,975 187 239 -64
2022-01-20 01:55:12 GMT 30.157984 -97.861488 3,975 187 239 -64
2022-01-20 01:55:08 GMT 30.162552 -97.860825 3,975 187 239 -64
2022-01-20 01:55:05 GMT 30.165710 -97.860397 3,975 187 239 64
2022-01-20 01:55:02 GMT 30.169281 -97.859909 3,975 187 239 0
2022-01-20 01:54:58 GMT 30.172394 -97.859535 3,975 187 240 -64
2022-01-20 01:54:55 GMT 30.177023 -97.858849 3,975 188 240 0
2022-01-20 01:54:52 GMT 30.180561 -97.858353 3,975 188 241 0
2022-01-20 01:54:49 GMT 30.183884 -97.857864 3,975 188 241 64
2022-01-20 01:54:46 GMT 30.185669 -97.857597 3,975 188 242 64
2022-01-20 01:54:43 GMT 30.190979 -97.856789 3,975 188 243 64
2022-01-20 01:54:40 GMT 30.193268 -97.856461 3,975 188 243 -64
2022-01-20 01:54:37 GMT 30.197086 -97.855881 3,975 188 242 64
2022-01-20 01:54:33 GMT 30.200409 -97.855331 3,975 188 242 64
2022-01-20 01:54:29 GMT 30.205307 -97.854630 3,975 188 241 64
2022-01-20 01:54:26 GMT 30.209423 -97.853958 3,975 188 240 -128
2022-01-20 01:54:23 GMT 30.212723 -97.853447 3,975 188 240 0
2022-01-20 01:54:19 GMT 30.217621 -97.852692 3,975 188 240 64
2022-01-20 01:54:15 GMT 30.220322 -97.852264 3,975 188 240 64
2022-01-20 01:54:12 GMT 30.224258 -97.851616 3,950 189 240 128
2022-01-20 01:54:09 GMT 30.227737 -97.851074 3,950 189 240 64
2022-01-20 01:54:05 GMT 30.232420 -97.850281 3,975 189 239 -128
2022-01-20 01:54:00 GMT 30.238146 -97.849289 3,975 190 240 -128
2022-01-20 01:53:57 GMT 30.240379 -97.848854 3,975 193 241 -64
2022-01-20 01:53:53 GMT 30.244537 -97.847847 3,975 193 242 0
2022-01-20 01:53:50 GMT 30.249458 -97.846107 3,975 207 244 128
2022-01-20 01:53:47 GMT 30.251553 -97.845062 3,975 210 244 128
2022-01-20 01:53:43 GMT 30.254883 -97.842896 3,975 213 245 64
2022-01-20 01:53:40 GMT 30.258303 -97.839844 3,975 225 245 -128
2022-01-20 01:53:37 GMT 30.260584 -97.837265 3,975 233 244 -64
2022-01-20 01:53:34 GMT 30.263050 -97.833580 3,975 240 243 -128
2022-01-20 01:53:30 GMT 30.265503 -97.828407 3,975 246 240 192
2022-01-20 01:53:26 GMT 30.266962 -97.823746 3,975 252 240 128
2022-01-20 01:53:23 GMT 30.267427 -97.821335 3,975 260 238 128
2022-01-20 01:53:19 GMT 30.267939 -97.815727 3,975 270 236 -64
2022-01-20 01:53:16 GMT 30.267975 -97.812462 3,975 272 234 128
2022-01-20 01:53:13 GMT 30.267893 -97.808151 3,975 272 235 128
2022-01-20 01:53:09 GMT 30.267792 -97.803413 3,975 272 234 0
2022-01-20 01:53:05 GMT 30.267746 -97.799377 3,975 272 234 -128
2022-01-20 01:53:02 GMT 30.267654 -97.794907 3,975 272 234 64
2022-01-20 01:52:59 GMT 30.267567 -97.790627 3,975 272 234 64
2022-01-20 01:52:56 GMT 30.267471 -97.786880 3,975 272 234 -64
2022-01-20 01:52:53 GMT 30.267380 -97.783920 3,975 272 234 -64
2022-01-20 01:52:50 GMT 30.267288 -97.780472 3,975 273 234 0
2022-01-20 01:52:47 GMT 30.267147 -97.776123 3,975 273 234 -64
2022-01-20 01:52:42 GMT 30.266869 -97.769203 3,975 273 233 -64
2022-01-20 01:52:38 GMT 30.266693 -97.763939 3,975 273 233 64
2022-01-20 01:52:34 GMT 30.266556 -97.759956 3,975 273 233 64
2022-01-20 01:52:31 GMT 30.266418 -97.755486 3,950 272 233 384
2022-01-20 01:52:28 GMT 30.266262 -97.751183 3,925 272 233 640
2022-01-20 01:52:25 GMT 30.266216 -97.748215 3,900 272 233 1152
2022-01-20 01:52:21 GMT 30.266098 -97.743477 3,800 271 233 1472
2022-01-20 01:52:17 GMT 30.266052 -97.738091 3,650 271 232 1728
2022-01-20 01:52:12 GMT 30.266052 -97.732056 3,550 270 231 1728
2022-01-20 01:52:09 GMT 30.266098 -97.728180 3,475 270 231 1856
2022-01-20 01:52:06 GMT 30.266144 -97.725700 3,400 270 230 1792
2022-01-20 01:52:03 GMT 30.266171 -97.721962 3,325 270 229 1664
2022-01-20 01:52:00 GMT 30.266235 -97.717896 3,250 270 227 1280
2022-01-20 01:51:56 GMT 30.266235 -97.712509 3,175 272 222 832
2022-01-20 01:51:52 GMT 30.266171 -97.709000 3,150 273 218 768
2022-01-20 01:51:49 GMT 30.265799 -97.704056 3,100 279 209 448
2022-01-20 01:51:45 GMT 30.265228 -97.700768 3,075 287 199 256
2022-01-20 01:51:40 GMT 30.262028 -97.693398 3,075 303 182 128
2022-01-20 01:51:37 GMT 30.262028 -97.693398 3,075 308 177 192
2022-01-20 01:51:33 GMT 30.259605 -97.690483 3,000 322 170 1152
2022-01-20 01:51:28 GMT 30.253927 -97.686966 2,875 338 164 1728
2022-01-20 01:51:25 GMT 30.253927 -97.686966 2,775 343 164 1856
2022-01-20 01:51:22 GMT 30.252365 -97.686447 2,725 350 163 1792
2022-01-20 01:51:17 GMT 30.248154 -97.685585 2,550 353 164 1664
2022-01-20 01:51:13 GMT 30.244942 -97.685104 2,450 353 166 1216
2022-01-20 01:51:09 GMT 30.241745 -97.684669 2,350 353 167 1088
2022-01-20 01:51:06 GMT 30.240379 -97.684441 2,325 353 169 768
2022-01-20 01:51:02 GMT 30.236115 -97.683807 2,325 354 175 -128
2022-01-20 01:50:59 GMT 30.234934 -97.683670 2,300 353 176 128
2022-01-20 01:50:56 GMT 30.232178 -97.683266 2,300 353 173 128
2022-01-20 01:50:53 GMT 30.229160 -97.682846 2,300 354 169 1088
2022-01-20 01:50:50 GMT 30.227951 -97.682686 2,225 354 168 1216
2022-01-20 01:50:47 GMT 30.225111 -97.682297 2,100 353 162 1600
2022-01-20 01:50:44 GMT 30.222290 -97.681923 2,100 353 162 1600
2022-01-20 01:50:40 GMT 30.219990 -97.681587 1,975 353 157 1920
2022-01-20 01:50:37 GMT 30.217709 -97.681259 1,925 353 155 1344
2022-01-20 01:50:33 GMT 30.214870 -97.680817 1,825 353 144 576
2022-01-20 01:50:30 GMT 30.212170 -97.680374 1,825 353 141 576
2022-01-20 01:50:27 GMT 30.210632 -97.680161 1,800 352 134 1024
2022-01-20 01:50:22 GMT 30.207979 -97.679718 1,650 354 128 2304
2022-01-20 01:50:18 GMT 30.205093 -97.679390 1,425 356 129 3136
2022-01-20 01:50:15 GMT 30.203384 -97.679283 1,275 357 131 3456
2022-01-20 01:50:10 GMT 30.200207 -97.679115 950 358 138 3904
2022-01-20 01:50:06 GMT 30.197754 -97.679016 700 359 145 3712
2022-01-20 01:48:51 GMT 30.180210 -97.673981 0 267 18
2022-01-20 01:48:34 GMT 30.180618 -97.672989 0 208 13
2022-01-20 01:48:30 GMT 30.180876 -97.672882 0 188 14
2022-01-20 01:48:20 GMT 30.181561 -97.672874 0 177 16

Making use of Plane Finder data

You are free to use the raw flight data, aircraft information and images provided in this report for your own purposes provided the data is correctly attributed to Plane Finder. We ask that you please credit Plane Finder and link to planefinder.net in close proximity to the content.

Optionally one of the following logos (no smaller then 150x24px) can be used and must link to planefinder.net

Embedding the Plane Finder map

You are welcome to embed the Plane Finder playback map on your website to offer visitors a more interactive experience. We suggest using the following HTML code:

<iframe src="//planefinder.net/data/report/AA4247-N268NN-7700-squawk-2022-01-20/map" width="800" height="600" seamless="seamless"></iframe>

Where our data comes from

Plane Finder has a global network of data feeds and antenna radars that receive data broadcast directly from aircraft. The primary technologies used are ADS-B and MLAT. We also show feeds from the FAA and a FLARM glider feed.

Click here to find out more about the Plane Finder network.

How we collect our data